Kennedale's Hourly Summary for Wednesday, March 15, 2017
Hour Temp
(f)
RH
(%)
Solar Rad.
(MJ/m2)
Rainfall
(in)
Wind
(mph)
3/15/2017 12:00 AM 53 53 0 0 3.95
3/15/2017 1:00 AM 53 53 0 0 3.97
3/15/2017 2:00 AM 51 54 0 0 4.08
3/15/2017 3:00 AM 49 55 0 0 5.92
3/15/2017 4:00 AM 47 57 0 0 5.03
3/15/2017 5:00 AM 46 61 0 0 3.86
3/15/2017 6:00 AM 45 63 0 0 3.75
3/15/2017 7:00 AM 45 69 0 0 3.86
3/15/2017 8:00 AM 46 71 0.23 0 5.65
3/15/2017 9:00 AM 49 67 0.35 0 6.82
3/15/2017 10:00 AM 52 61 0.51 0 6.77
3/15/2017 11:00 AM 55 56 2.08 0 6.43
3/15/2017 12:00 PM 57 54 2.49 0 6.43
3/15/2017 1:00 PM 59 51 2.72 0 6.66
3/15/2017 2:00 PM 61 49 2.67 0 6.26
3/15/2017 3:00 PM 63 48 2.43 0 6.6
3/15/2017 4:00 PM 64 48 1.99 0 7.04
3/15/2017 5:00 PM 65 46 1.41 0 7.1
3/15/2017 6:00 PM 65 47 0.73 0 8.11
3/15/2017 7:00 PM 63 53 0.09 0 6.77
3/15/2017 8:00 PM 59 60 0 0 4.2
3/15/2017 9:00 PM 58 64 0 0 3.75
3/15/2017 10:00 PM 56 66 0 0 6.15
3/15/2017 11:00 PM 55 68 0 0 6.43
Data Summary 54 57 17.70 0.00 5.65